Time;durP1;ratioP1;P1;durP2;ratioP2;P2;SDS_P1;SDS_P2;PMS_P1;PMS_P2;Temp;Humidity;BMP_temperature;BMP_pressure;BME280_temperature;BME280_humidity;BME280_pressure;Samples;Min_cycle;Max_cycle;Signal;HPM_P1;HPM_P2
2022/12/21 00:01:53;;;;;;;34.13;23.15;;;8.40;99.90;;;;;;5054849;28;20036;-73
2022/12/21 00:04:19;;;;;;;36.72;22.60;;;8.20;99.90;;;;;;5054052;28;20029;-72
2022/12/21 00:06:45;;;;;;;35.92;23.10;;;8.20;99.90;;;;;;5054651;28;20053;-73
2022/12/21 00:09:12;;;;;;;40.55;23.27;;;8.20;99.90;;;;;;5054485;28;20377;-73
2022/12/21 00:11:38;;;;;;;38.70;22.80;;;8.10;99.90;;;;;;5054145;28;20025;-73
2022/12/21 00:14:04;;;;;;;41.72;25.00;;;8.10;99.90;;;;;;5055135;28;20028;-72
2022/12/21 00:16:32;;;;;;;42.45;24.15;;;8.00;99.90;;;;;;5055066;28;20079;-73
2022/12/21 00:18:59;;;;;;;39.35;22.98;;;8.00;99.90;;;;;;5053883;28;20025;-73
2022/12/21 00:21:36;;;;;;;46.08;26.23;;;8.00;99.90;;;;;;5055315;28;20013;-72
2022/12/21 00:24:02;;;;;;;39.53;23.80;;;8.00;99.90;;;;;;5053702;28;20072;-74
2022/12/21 00:26:31;;;;;;;39.72;24.95;;;8.00;99.90;;;;;;5055329;28;20021;-72
2022/12/21 00:28:58;;;;;;;38.00;23.60;;;8.00;99.90;;;;;;5054490;28;20078;-73
2022/12/21 00:31:29;;;;;;;41.42;24.33;;;8.00;99.90;;;;;;5058394;28;20036;-73
2022/12/21 00:33:56;;;;;;;43.05;24.27;;;8.00;99.90;;;;;;5048580;28;20025;-74
2022/12/21 00:36:23;;;;;;;46.42;25.60;;;7.90;99.90;;;;;;5052609;28;20029;-73
2022/12/21 00:38:49;;;;;;;41.30;24.65;;;7.90;99.90;;;;;;5053971;28;20489;-73
2022/12/21 00:41:19;;;;;;;46.50;22.90;;;7.90;99.90;;;;;;5054440;28;20136;-72
2022/12/21 00:43:45;;;;;;;38.53;23.42;;;7.80;99.90;;;;;;5054939;28;20040;-72
2022/12/21 00:46:21;;;;;;;43.67;23.38;;;7.90;99.90;;;;;;5053697;28;20041;-73
2022/12/21 00:48:47;;;;;;;38.13;22.77;;;7.90;99.90;;;;;;5054654;28;20068;-73
2022/12/21 00:51:17;;;;;;;41.17;21.98;;;7.90;99.90;;;;;;5053842;28;20408;-73
2022/12/21 00:53:43;;;;;;;38.35;22.98;;;7.80;99.90;;;;;;5053145;28;20115;-73
2022/12/21 00:56:10;;;;;;;35.47;20.60;;;7.90;99.90;;;;;;5053684;28;20404;-73
2022/12/21 00:58:37;;;;;;;33.25;21.02;;;7.80;99.90;;;;;;5053466;28;20020;-73
2022/12/21 01:01:13;;;;;;;34.83;21.67;;;7.90;99.90;;;;;;5052864;28;20036;-73
2022/12/21 01:03:40;;;;;;;32.58;21.15;;;7.80;99.90;;;;;;5053860;28;20024;-73
2022/12/21 01:06:05;;;;;;;44.47;23.27;;;7.80;99.90;;;;;;5038798;28;20039;-72
2022/12/21 01:08:31;;;;;;;39.95;22.70;;;7.80;99.90;;;;;;5034227;28;20108;-73
2022/12/21 01:11:00;;;;;;;44.05;24.50;;;7.80;99.90;;;;;;5037032;28;20048;-73
2022/12/21 01:13:27;;;;;;;41.88;23.50;;;7.80;99.90;;;;;;5039411;28;20025;-73
2022/12/21 01:15:52;;;;;;;42.13;23.27;;;7.80;99.90;;;;;;5039986;28;20025;-73
2022/12/21 01:18:18;;;;;;;36.95;22.50;;;7.80;99.90;;;;;;5053891;28;20021;-72
2022/12/21 01:20:47;;;;;;;42.88;23.83;;;7.80;99.90;;;;;;5052505;28;20420;-73
2022/12/21 01:23:12;;;;;;;39.38;23.70;;;7.70;99.90;;;;;;5044255;28;20030;-73
2022/12/21 01:25:38;;;;;;;36.05;22.83;;;7.80;99.90;;;;;;5048066;28;20044;-73
2022/12/21 01:28:04;;;;;;;40.80;22.58;;;7.80;99.90;;;;;;5052673;28;20427;-73
2022/12/21 01:30:30;;;;;;;34.13;21.58;;;7.80;99.90;;;;;;5053482;28;20025;-73
2022/12/21 01:32:55;;;;;;;39.22;22.02;;;7.80;99.90;;;;;;5052745;28;20021;-74
2022/12/21 01:35:21;;;;;;;37.83;22.35;;;7.80;99.90;;;;;;5052312;28;20029;-73
2022/12/21 01:37:47;;;;;;;35.97;22.70;;;7.70;99.90;;;;;;5053719;28;20454;-72
2022/12/21 01:40:13;;;;;;;34.58;21.85;;;7.70;99.90;;;;;;5045746;28;20022;-73
2022/12/21 01:42:41;;;;;;;36.15;23.20;;;7.70;99.90;;;;;;5046816;28;20020;-74
2022/12/21 01:45:26;;;;;;;36.47;23.95;;;7.70;99.90;;;;;;5052559;28;20024;-73
2022/12/21 01:47:57;;;;;;;37.05;23.50;;;7.70;99.90;;;;;;5052624;28;20021;-72
2022/12/21 01:50:31;;;;;;;38.53;24.42;;;7.70;99.90;;;;;;5052386;28;20021;-73
2022/12/21 01:53:00;;;;;;;43.28;23.05;;;7.70;99.90;;;;;;5052515;28;20032;-73
2022/12/21 01:55:27;;;;;;;38.53;22.42;;;7.70;99.90;;;;;;5045020;28;20013;-73
2022/12/21 01:57:53;;;;;;;40.97;23.52;;;7.70;99.90;;;;;;5047073;28;20087;-74
2022/12/21 02:00:19;;;;;;;44.33;23.73;;;7.70;99.90;;;;;;5053654;28;20017;-73
2022/12/21 02:02:56;;;;;;;44.97;23.58;;;7.70;99.90;;;;;;5052366;28;20028;-73
2022/12/21 02:05:34;;;;;;;39.90;23.52;;;7.70;99.90;;;;;;5052436;28;20057;-72
2022/12/21 02:08:03;;;;;;;41.97;22.80;;;7.70;99.90;;;;;;5052374;28;20083;-73
2022/12/21 02:10:29;;;;;;;41.80;22.88;;;7.80;99.90;;;;;;5052097;28;20040;-74
2022/12/21 02:13:00;;;;;;;36.10;21.88;;;7.70;99.90;;;;;;5052338;28;20028;-73
2022/12/21 02:15:38;;;;;;;41.15;21.75;;;7.80;99.90;;;;;;5038589;28;20024;-73
2022/12/21 02:18:22;;;;;;;38.20;23.08;;;7.70;99.90;;;;;;5051573;28;20471;-72
2022/12/21 02:21:24;;;;;;;36.13;21.52;;;7.80;99.90;;;;;;5052789;28;20025;-73
2022/12/21 02:24:11;;;;;;;45.75;24.10;;;7.80;99.90;;;;;;5051915;28;20053;-72
2022/12/21 02:26:52;;;;;;;38.20;22.23;;;7.80;99.90;;;;;;5052738;28;20017;-73
2022/12/21 02:29:31;;;;;;;40.03;22.15;;;7.80;99.90;;;;;;5052532;28;20028;-73
2022/12/21 02:32:15;;;;;;;34.28;22.05;;;7.80;99.90;;;;;;5051265;28;20025;-73
2022/12/21 02:34:55;;;;;;;39.65;22.45;;;7.80;99.90;;;;;;5040304;28;20029;-73
2022/12/21 02:37:40;;;;;;;48.28;24.58;;;7.70;99.90;;;;;;5052235;28;20484;-73
2022/12/21 02:40:21;;;;;;;37.13;22.52;;;7.80;99.90;;;;;;5052237;28;20086;-74
2022/12/21 02:46:02;;;;;;;40.60;22.90;;;7.80;99.90;;;;;;5052273;28;20568;-73
2022/12/21 02:49:02;;;;;;;37.53;22.45;;;7.80;99.90;;;;;;5056171;28;20025;-73
2022/12/21 02:51:37;;;;;;;47.15;23.20;;;7.70;99.90;;;;;;5041679;28;20029;-73
2022/12/21 02:54:03;;;;;;;34.42;21.77;;;7.70;99.90;;;;;;5056398;28;20033;-74
2022/12/21 02:56:28;;;;;;;38.70;22.52;;;7.70;99.90;;;;;;5056395;28;20043;-73
2022/12/21 02:58:54;;;;;;;34.25;20.63;;;7.60;99.90;;;;;;5055056;28;20024;-74
2022/12/21 03:01:41;;;;;;;64.15;22.08;;;7.60;99.90;;;;;;5054500;28;20036;-74
2022/12/21 03:04:31;;;;;;;166.75;22.23;;;7.60;99.90;;;;;;5043369;28;20061;-73
2022/12/21 03:07:02;;;;;;;58.50;19.40;;;7.60;99.90;;;;;;5042696;28;20033;-73
2022/12/21 03:09:46;;;;;;;67.35;20.13;;;7.60;99.90;;;;;;5055352;28;20035;-73
2022/12/21 03:12:33;;;;;;;50.40;20.63;;;7.60;99.90;;;;;;5055666;28;20052;-72
2022/12/21 03:15:13;;;;;;;38.55;20.83;;;7.60;99.90;;;;;;5041901;28;20053;-74
2022/12/21 03:18:00;;;;;;;42.35;20.85;;;7.60;99.90;;;;;;5043478;28;20033;-73
2022/12/21 03:20:35;;;;;;;38.53;21.25;;;7.50;99.90;;;;;;5055337;28;20163;-72
2022/12/21 03:23:31;;;;;;;38.42;20.30;;;7.50;99.90;;;;;;5055991;28;20029;-74
2022/12/21 03:26:25;;;;;;;51.22;21.13;;;7.60;99.90;;;;;;5055693;28;20033;-73
2022/12/21 03:28:53;;;;;;;38.35;21.63;;;7.60;99.90;;;;;;5054679;28;20440;-72
2022/12/21 03:31:23;;;;;;;104.03;23.35;;;7.60;99.90;;;;;;5055739;28;20056;-73
2022/12/21 03:33:58;;;;;;;42.38;21.98;;;7.60;99.90;;;;;;5054633;28;20021;-71
2022/12/21 03:36:48;;;;;;;58.70;20.98;;;7.60;99.90;;;;;;5055456;28;20065;-73
2022/12/21 03:39:18;;;;;;;57.70;22.50;;;7.60;99.90;;;;;;5041112;28;20075;-72
2022/12/21 03:41:49;;;;;;;44.65;19.98;;;7.70;99.90;;;;;;5054970;28;20040;-73
2022/12/21 03:44:25;;;;;;;51.58;22.55;;;7.70;99.90;;;;;;5055618;28;20063;-74
2022/12/21 03:46:56;;;;;;;40.53;20.67;;;7.70;99.90;;;;;;5055047;28;20481;-73
2022/12/21 03:49:32;;;;;;;41.08;20.73;;;7.70;99.90;;;;;;5054558;28;20036;-73
2022/12/21 03:52:07;;;;;;;42.10;19.83;;;7.60;99.90;;;;;;5055449;28;20036;-72
2022/12/21 03:54:51;;;;;;;38.80;19.75;;;7.70;99.90;;;;;;5055210;28;20428;-73
2022/12/21 03:57:18;;;;;;;36.67;20.58;;;7.60;99.90;;;;;;5054478;28;20025;-72
2022/12/21 03:59:48;;;;;;;48.92;21.58;;;7.60;99.90;;;;;;5054771;28;20037;-72
2022/12/21 04:02:35;;;;;;;46.10;19.55;;;7.60;99.90;;;;;;5054005;28;20428;-71
2022/12/21 04:05:14;;;;;;;37.42;19.58;;;7.70;99.90;;;;;;5054396;28;20044;-73
2022/12/21 04:07:41;;;;;;;51.50;22.63;;;7.70;99.90;;;;;;5055847;28;20029;-73
2022/12/21 04:10:10;;;;;;;44.38;20.20;;;7.70;99.90;;;;;;5055666;28;20361;-74
2022/12/21 04:12:36;;;;;;;40.13;20.35;;;7.70;99.90;;;;;;5055602;28;20025;-73
2022/12/21 04:15:15;;;;;;;39.47;21.60;;;7.70;99.90;;;;;;5040690;28;20117;-73
2022/12/21 04:17:42;;;;;;;47.03;21.67;;;7.70;99.90;;;;;;5042411;28;20021;-72
2022/12/21 04:20:14;;;;;;;49.90;22.17;;;7.70;99.90;;;;;;5054669;28;20120;-73
2022/12/21 04:28:24;;;;;;;43.90;19.50;;;7.70;99.90;;;;;;5054404;28;20048;-72
2022/12/21 04:30:50;;;;;;;43.45;19.50;;;7.70;99.90;;;;;;5053294;28;20112;-73
2022/12/21 04:33:18;;;;;;;52.05;20.15;;;7.70;99.90;;;;;;5054192;28;20433;-73
2022/12/21 04:38:32;;;;;;;49.50;21.63;;;7.70;99.90;;;;;;5054086;28;20424;-74
2022/12/21 04:40:58;;;;;;;47.97;22.00;;;7.70;99.90;;;;;;5053791;28;20361;-73
2022/12/21 04:43:24;;;;;;;45.38;22.73;;;7.70;99.90;;;;;;5054021;28;20032;-73
2022/12/21 04:46:02;;;;;;;47.58;24.42;;;7.70;99.90;;;;;;5053244;28;20052;-73
2022/12/21 04:48:28;;;;;;;47.13;25.70;;;8.60;99.90;;;;;;5054247;28;20017;-73
2022/12/21 04:50:54;;;;;;;57.67;25.80;;;7.70;99.90;;;;;;5053882;28;20037;-74
2022/12/21 04:53:28;;;;;;;59.33;26.85;;;7.70;99.90;;;;;;5053480;28;20103;-72
2022/12/21 04:55:54;;;;;;;58.13;26.20;;;7.80;99.90;;;;;;5053496;28;20106;-72
2022/12/21 04:58:19;;;;;;;58.58;26.80;;;7.80;99.90;;;;;;5050074;28;20112;-73
2022/12/21 05:00:48;;;;;;;47.30;27.48;;;7.80;99.90;;;;;;5040843;28;20401;-72
2022/12/21 05:03:13;;;;;;;71.53;28.35;;;7.80;99.90;;;;;;5039896;28;20025;-73
2022/12/21 05:05:39;;;;;;;51.10;29.77;;;7.80;99.90;;;;;;5047838;28;20574;-74
2022/12/21 05:08:05;;;;;;;59.47;30.70;;;7.80;99.90;;;;;;5044570;28;20497;-74
2022/12/21 05:10:31;;;;;;;55.88;30.67;;;8.60;99.90;;;;;;5048157;28;20174;-73
2022/12/21 05:12:56;;;;;;;67.03;33.63;;;7.90;99.90;;;;;;5045603;28;20131;-72
2022/12/21 05:15:22;;;;;;;58.70;30.90;;;7.90;99.90;;;;;;5048559;28;20021;-73
2022/12/21 05:17:47;;;;;;;70.05;33.05;;;7.90;99.90;;;;;;5051585;28;20112;-73
2022/12/21 05:20:13;;;;;;;58.13;32.53;;;7.80;99.90;;;;;;5050189;28;20116;-72
2022/12/21 05:22:38;;;;;;;60.58;32.08;;;7.80;99.90;;;;;;5051490;28;20045;-72
2022/12/21 05:25:04;;;;;;;69.05;33.80;;;7.90;99.90;;;;;;5051270;28;20143;-73
2022/12/21 05:27:30;;;;;;;61.15;32.08;;;7.90;99.90;;;;;;5050504;28;20028;-74
2022/12/21 05:29:55;;;;;;;58.80;31.58;;;7.90;99.90;;;;;;5051246;28;20131;-74
2022/12/21 05:32:21;;;;;;;61.88;32.80;;;8.00;99.90;;;;;;5050263;28;20021;-73
2022/12/21 05:34:47;;;;;;;60.28;30.80;;;7.90;99.90;;;;;;5050252;28;20029;-73
2022/12/21 05:37:12;;;;;;;58.78;30.98;;;7.90;99.90;;;;;;5049808;28;20064;-74
2022/12/21 05:39:38;;;;;;;69.78;29.77;;;7.90;99.90;;;;;;5051509;28;20029;-74
2022/12/21 05:42:03;;;;;;;56.50;31.65;;;7.90;99.90;;;;;;5049396;28;20029;-74
2022/12/21 05:44:29;;;;;;;58.95;30.88;;;7.90;99.90;;;;;;5050578;28;20615;-73
2022/12/21 05:46:55;;;;;;;59.45;31.13;;;7.80;99.90;;;;;;5050599;28;20056;-73
2022/12/21 05:49:21;;;;;;;76.10;32.05;;;7.80;99.90;;;;;;5050227;28;20025;-74
2022/12/21 05:51:48;;;;;;;53.25;29.08;;;7.90;99.90;;;;;;5051407;28;20072;-74
2022/12/21 05:54:16;;;;;;;47.65;26.98;;;7.80;99.90;;;;;;5051479;28;20025;-73
2022/12/21 05:56:42;;;;;;;52.13;28.67;;;7.80;99.90;;;;;;5049444;28;20021;-73
2022/12/21 05:59:08;;;;;;;53.35;28.10;;;7.80;99.90;;;;;;5050821;28;20427;-72
2022/12/21 06:01:33;;;;;;;47.92;27.65;;;7.80;99.90;;;;;;5047303;28;20021;-74
2022/12/21 06:03:59;;;;;;;48.72;27.50;;;7.80;99.90;;;;;;5049308;28;20066;-73
2022/12/21 06:06:25;;;;;;;45.08;26.67;;;7.70;99.90;;;;;;5049226;28;20059;-73
2022/12/21 06:08:51;;;;;;;45.97;26.40;;;7.70;99.90;;;;;;5046415;28;20024;-73
2022/12/21 06:11:19;;;;;;;44.35;25.42;;;7.70;99.90;;;;;;5049519;28;20436;-76
2022/12/21 06:13:46;;;;;;;50.08;26.58;;;7.60;99.90;;;;;;5045530;28;20128;-73
2022/12/21 06:16:15;;;;;;;43.67;24.70;;;7.60;99.90;;;;;;5050576;28;20025;-74
2022/12/21 06:18:41;;;;;;;46.35;25.95;;;7.50;99.90;;;;;;5048403;28;20109;-73
2022/12/21 06:21:09;;;;;;;45.63;26.58;;;7.50;99.90;;;;;;5051039;28;20492;-72
2022/12/21 06:23:35;;;;;;;34.95;23.65;;;7.50;99.90;;;;;;5049589;28;20040;-73
2022/12/21 06:26:02;;;;;;;40.70;25.55;;;7.50;99.90;;;;;;5050940;28;20040;-73
2022/12/21 06:28:29;;;;;;;42.17;23.65;;;7.40;99.90;;;;;;5051262;28;20017;-74
2022/12/21 06:31:00;;;;;;;37.90;24.33;;;7.40;99.90;;;;;;5049407;28;20021;-75
2022/12/21 06:33:27;;;;;;;40.10;23.67;;;7.40;99.90;;;;;;5051324;28;20029;-73
2022/12/21 06:35:55;;;;;;;38.78;24.25;;;7.30;99.90;;;;;;5051053;28;20028;-73
2022/12/21 06:38:21;;;;;;;37.92;23.38;;;7.30;99.90;;;;;;5050463;28;20040;-74
2022/12/21 06:40:58;;;;;;;40.60;23.98;;;7.30;99.90;;;;;;5041246;28;20087;-73
2022/12/21 06:43:26;;;;;;;36.97;22.02;;;7.20;99.90;;;;;;5038414;28;20022;-72
2022/12/21 06:45:56;;;;;;;34.13;21.27;;;7.20;99.90;;;;;;5033134;28;20048;-73
2022/12/21 06:48:23;;;;;;;40.42;21.92;;;7.20;99.90;;;;;;5042885;28;20029;-73
2022/12/21 06:50:56;;;;;;;40.15;22.00;;;7.10;99.90;;;;;;5040251;28;20494;-73
2022/12/21 06:53:24;;;;;;;33.10;21.20;;;7.10;99.90;;;;;;5044437;28;20036;-74
2022/12/21 06:55:57;;;;;;;35.72;21.80;;;7.00;99.90;;;;;;5043447;28;20120;-73
2022/12/21 06:58:22;;;;;;;36.95;21.90;;;7.00;99.90;;;;;;5046929;28;20017;-73
2022/12/21 07:00:49;;;;;;;35.33;20.73;;;7.00;99.90;;;;;;5045221;28;20040;-73
2022/12/21 07:03:14;;;;;;;41.38;23.42;;;7.00;99.90;;;;;;5045339;28;20017;-74
2022/12/21 07:05:40;;;;;;;37.60;23.30;;;7.00;99.90;;;;;;5045493;28;20366;-73
2022/12/21 07:08:06;;;;;;;34.65;21.88;;;7.00;99.90;;;;;;5043289;28;20028;-73
2022/12/21 07:10:31;;;;;;;35.88;22.58;;;6.90;99.90;;;;;;5049353;28;20029;-73
2022/12/21 07:12:57;;;;;;;47.58;23.00;;;6.90;99.90;;;;;;5042758;28;20684;-73
2022/12/21 07:15:22;;;;;;;35.50;22.65;;;6.90;99.90;;;;;;5047421;28;20123;-74
2022/12/21 07:17:48;;;;;;;44.20;22.23;;;6.80;99.90;;;;;;5050632;28;20074;-73
2022/12/21 07:20:13;;;;;;;41.33;23.38;;;6.90;99.90;;;;;;5048198;28;20028;-73
2022/12/21 07:22:39;;;;;;;52.60;24.27;;;6.80;99.90;;;;;;5049544;28;20496;-74
2022/12/21 07:25:05;;;;;;;47.95;23.65;;;6.90;99.90;;;;;;5059049;28;20511;-74
2022/12/21 07:27:31;;;;;;;39.45;21.00;;;6.90;99.90;;;;;;5049159;28;20025;-74
2022/12/21 07:29:57;;;;;;;44.30;22.63;;;6.90;99.90;;;;;;5051948;28;20120;-73
2022/12/21 07:32:22;;;;;;;35.20;20.63;;;6.90;99.90;;;;;;5046007;28;20363;-75
2022/12/21 07:34:48;;;;;;;34.97;22.02;;;6.90;99.90;;;;;;5053094;28;20087;-74
2022/12/21 07:37:13;;;;;;;43.38;22.65;;;6.90;99.90;;;;;;5059602;28;20021;-75
2022/12/21 07:39:39;;;;;;;40.53;22.77;;;6.90;99.90;;;;;;5053272;28;20464;-72
2022/12/21 07:42:04;;;;;;;46.35;22.83;;;6.90;99.90;;;;;;5052257;28;20033;-74
2022/12/21 07:44:30;;;;;;;38.58;22.05;;;6.90;99.90;;;;;;5050737;28;20466;-76
2022/12/21 07:46:55;;;;;;;44.75;21.95;;;6.90;99.90;;;;;;5043597;28;20018;-75
2022/12/21 07:49:24;;;;;;;34.35;20.20;;;6.90;99.90;;;;;;5041463;28;20025;-74
2022/12/21 07:51:50;;;;;;;30.90;20.08;;;6.80;99.90;;;;;;5039099;28;20075;-73
2022/12/21 07:54:19;;;;;;;42.35;23.05;;;6.80;99.90;;;;;;5039506;28;20471;-74
2022/12/21 07:56:44;;;;;;;34.20;21.23;;;6.70;99.90;;;;;;5050992;28;20021;-73
2022/12/21 07:59:10;;;;;;;38.95;22.02;;;6.70;99.90;;;;;;5047787;28;20036;-74
2022/12/21 08:01:37;;;;;;;43.20;23.00;;;6.70;99.90;;;;;;5049071;28;20017;-74
2022/12/21 08:04:02;;;;;;;36.40;22.95;;;6.70;99.90;;;;;;5052132;28;20025;-74
2022/12/21 08:06:28;;;;;;;41.85;23.30;;;6.70;99.90;;;;;;5048560;28;20097;-74
2022/12/21 08:08:53;;;;;;;38.58;23.67;;;6.70;99.90;;;;;;5047195;28;20025;-74
2022/12/21 08:11:20;;;;;;;39.17;23.35;;;6.70;99.90;;;;;;5040014;28;20068;-73
2022/12/21 08:13:46;;;;;;;42.65;22.58;;;6.70;99.90;;;;;;5047107;28;20025;-74
2022/12/21 08:16:14;;;;;;;43.63;23.73;;;6.70;99.90;;;;;;5046665;28;20029;-74
2022/12/21 08:18:40;;;;;;;40.15;23.23;;;6.70;99.90;;;;;;5036605;28;20056;-75
2022/12/21 08:21:06;;;;;;;41.85;23.50;;;6.70;99.90;;;;;;5041365;28;20022;-75
2022/12/21 08:23:32;;;;;;;37.97;22.05;;;6.70;99.90;;;;;;5034024;28;20022;-74
2022/12/21 08:26:07;;;;;;;41.10;23.38;;;6.80;99.90;;;;;;5034502;28;20385;-75
2022/12/21 08:28:33;;;;;;;46.47;24.52;;;6.80;99.90;;;;;;5034289;28;20033;-73
2022/12/21 08:31:07;;;;;;;41.90;24.30;;;6.80;99.90;;;;;;5042554;28;20018;-73
2022/12/21 08:33:32;;;;;;;42.15;24.35;;;6.90;99.90;;;;;;5041719;28;20054;-74
2022/12/21 08:35:58;;;;;;;42.80;23.23;;;6.90;99.90;;;;;;5049516;28;20079;-73
2022/12/21 08:38:24;;;;;;;47.67;24.17;;;7.00;99.90;;;;;;5053941;28;20016;-73
2022/12/21 08:40:51;;;;;;;50.92;24.80;;;7.00;99.90;;;;;;5049474;28;20547;-73
2022/12/21 08:43:17;;;;;;;40.15;22.83;;;7.00;99.90;;;;;;5035504;28;20103;-73
2022/12/21 08:45:43;;;;;;;46.83;22.35;;;7.10;99.90;;;;;;5033803;28;20034;-73
2022/12/21 08:48:09;;;;;;;45.13;23.63;;;7.10;99.90;;;;;;5033737;28;20029;-73
2022/12/21 08:50:35;;;;;;;34.38;21.52;;;7.20;99.90;;;;;;5033345;28;20511;-73
2022/12/21 08:53:00;;;;;;;38.50;21.27;;;7.20;99.90;;;;;;5033372;28;20025;-72
2022/12/21 08:55:26;;;;;;;49.88;23.58;;;7.20;99.90;;;;;;5033630;28;20060;-73
2022/12/21 08:57:52;;;;;;;46.03;21.33;;;7.20;99.90;;;;;;5032857;28;20026;-72
2022/12/21 09:00:18;;;;;;;38.03;20.67;;;7.20;99.90;;;;;;5034052;28;20028;-73
2022/12/21 09:02:44;;;;;;;40.97;21.98;;;7.20;99.90;;;;;;5033428;28;20026;-74
2022/12/21 09:05:10;;;;;;;41.28;21.73;;;7.20;99.90;;;;;;5033093;28;20120;-74
2022/12/21 09:07:35;;;;;;;42.83;22.02;;;7.20;99.90;;;;;;5034057;28;20025;-73
2022/12/21 09:10:01;;;;;;;47.47;21.52;;;7.20;99.90;;;;;;5033361;28;20025;-74
2022/12/21 09:12:27;;;;;;;44.17;20.67;;;7.20;99.90;;;;;;5033546;28;20022;-76
2022/12/21 09:14:53;;;;;;;37.58;19.98;;;7.30;99.90;;;;;;5033941;28;20026;-76
2022/12/21 09:17:18;;;;;;;47.97;19.90;;;7.30;99.90;;;;;;5038179;28;20108;-73
2022/12/21 09:19:44;;;;;;;42.47;20.10;;;7.30;99.90;;;;;;5041323;28;20032;-73
2022/12/21 09:22:09;;;;;;;42.72;20.08;;;7.40;99.90;;;;;;5033080;28;20025;-73
2022/12/21 09:24:35;;;;;;;34.38;20.30;;;7.40;99.90;;;;;;5032996;28;20058;-73
2022/12/21 09:27:00;;;;;;;36.78;18.60;;;7.50;99.90;;;;;;5032661;28;20029;-73
2022/12/21 09:29:26;;;;;;;41.50;20.33;;;7.50;99.90;;;;;;5040249;28;20045;-73
2022/12/21 09:31:52;;;;;;;39.45;19.45;;;7.60;99.90;;;;;;5032935;28;20036;-74
2022/12/21 09:34:18;;;;;;;28.60;17.90;;;7.50;99.90;;;;;;5037943;28;20164;-72
2022/12/21 09:36:45;;;;;;;30.98;18.05;;;7.60;99.90;;;;;;5032982;28;20038;-73
2022/12/21 09:39:10;;;;;;;35.20;17.42;;;7.70;99.90;;;;;;5032661;28;20026;-73
2022/12/21 09:42:12;;;;;;;33.40;18.92;;;7.70;99.90;;;;;;5032122;28;20044;-73
2022/12/21 09:44:47;;;;;;;32.70;16.20;;;7.70;99.90;;;;;;5032693;28;20120;-74
2022/12/21 09:47:20;;;;;;;27.77;15.52;;;7.80;99.90;;;;;;5031948;28;20024;-73
2022/12/21 09:49:55;;;;;;;35.72;16.10;;;7.80;99.90;;;;;;5032504;28;20036;-73
2022/12/21 09:52:26;;;;;;;31.92;15.40;;;7.80;99.90;;;;;;5032963;28;20583;-74
2022/12/21 09:55:00;;;;;;;33.33;17.58;;;7.70;99.90;;;;;;5037434;28;20021;-75
2022/12/21 09:57:34;;;;;;;39.55;19.55;;;7.70;99.90;;;;;;5039269;28;20040;-72
2022/12/21 10:00:00;;;;;;;41.45;19.55;;;7.70;99.90;;;;;;5044577;28;20072;-73
2022/12/21 10:02:49;;;;;;;42.72;17.98;;;7.80;99.90;;;;;;5032171;28;20029;-72
2022/12/21 10:05:52;;;;;;;35.22;18.08;;;7.80;99.90;;;;;;5032137;28;20029;-72
2022/12/21 10:08:51;;;;;;;42.78;19.33;;;7.80;99.90;;;;;;5031935;28;20029;-73
2022/12/21 10:11:26;;;;;;;39.08;19.55;;;8.30;99.90;;;;;;5043649;28;20060;-73
2022/12/21 10:14:30;;;;;;;41.33;20.95;;;7.70;99.90;;;;;;5037846;28;20104;-74
2022/12/21 10:17:04;;;;;;;36.22;18.55;;;7.60;99.90;;;;;;5023021;28;20056;-73
2022/12/21 10:19:58;;;;;;;41.85;19.35;;;7.60;99.90;;;;;;5048628;28;20040;-74
2022/12/21 10:22:29;;;;;;;43.13;20.05;;;7.70;99.90;;;;;;5036615;28;20053;-73
2022/12/21 10:24:59;;;;;;;42.25;20.42;;;7.60;99.90;;;;;;5034281;28;20119;-73
2022/12/21 10:27:37;;;;;;;37.55;20.45;;;7.60;99.90;;;;;;5031925;28;20117;-73
2022/12/21 10:30:04;;;;;;;32.63;20.42;;;7.70;99.90;;;;;;5031106;28;20120;-74
2022/12/21 10:32:33;;;;;;;43.38;20.73;;;7.70;99.90;;;;;;5034633;28;20037;-72
2022/12/21 10:35:16;;;;;;;46.35;19.63;;;7.90;99.90;;;;;;5031967;28;20377;-73
2022/12/21 10:37:49;;;;;;;41.90;21.50;;;8.00;99.90;;;;;;5031354;28;20469;-74
2022/12/21 10:40:15;;;;;;;38.10;23.70;;;8.10;99.90;;;;;;5032457;28;20037;-73
2022/12/21 10:42:44;;;;;;;39.20;23.05;;;8.10;99.90;;;;;;5031908;28;20021;-74
2022/12/21 10:45:15;;;;;;;47.28;26.23;;;8.20;99.90;;;;;;5032513;28;20041;-73
2022/12/21 10:47:44;;;;;;;47.15;25.08;;;8.20;99.90;;;;;;5032397;28;20025;-73
2022/12/21 10:50:41;;;;;;;36.70;23.50;;;8.20;99.90;;;;;;5031435;28;20116;-73
2022/12/21 10:53:18;;;;;;;47.08;25.63;;;8.20;99.90;;;;;;5029976;28;20026;-74
2022/12/21 10:55:44;;;;;;;59.28;26.92;;;8.10;99.90;;;;;;5032137;28;20032;-73
2022/12/21 10:58:16;;;;;;;54.45;28.50;;;8.10;99.90;;;;;;5031775;28;20021;-73
2022/12/21 11:01:01;;;;;;;43.08;23.88;;;8.10;99.90;;;;;;5032436;28;20030;-73
2022/12/21 11:03:38;;;;;;;36.72;20.70;;;8.10;99.90;;;;;;5047946;28;20025;-74
2022/12/21 11:06:16;;;;;;;49.28;22.45;;;8.10;99.90;;;;;;5046830;28;20040;-73
2022/12/21 11:08:52;;;;;;;45.45;21.92;;;8.20;99.90;;;;;;5048093;28;20037;-74
2022/12/21 11:11:29;;;;;;;47.92;22.90;;;8.10;99.90;;;;;;5044937;28;20050;-73
2022/12/21 11:14:03;;;;;;;47.53;25.48;;;8.10;99.90;;;;;;5055163;28;20021;-74
2022/12/21 11:16:31;;;;;;;50.35;25.02;;;8.10;99.90;;;;;;5050249;28;20014;-75
2022/12/21 11:19:00;;;;;;;52.97;25.05;;;8.20;99.90;;;;;;5038431;28;20079;-73
2022/12/21 11:21:38;;;;;;;47.28;23.10;;;8.20;99.90;;;;;;5043479;28;20036;-74
2022/12/21 11:24:17;;;;;;;53.45;23.67;;;8.20;99.90;;;;;;5034654;28;20056;-74
2022/12/21 11:26:46;;;;;;;51.35;23.02;;;8.30;99.90;;;;;;5034829;28;20034;-74
2022/12/21 11:29:21;;;;;;;45.47;23.52;;;8.30;99.90;;;;;;5035165;28;20049;-74
2022/12/21 11:31:48;;;;;;;48.25;22.48;;;8.30;99.90;;;;;;5035675;28;20034;-72
2022/12/21 11:34:38;;;;;;;40.30;21.23;;;8.30;99.90;;;;;;5034187;28;20087;-73
2022/12/21 11:37:27;;;;;;;43.90;21.55;;;8.40;99.90;;;;;;5035146;28;20038;-74
2022/12/21 11:39:56;;;;;;;51.15;22.58;;;8.40;99.90;;;;;;5033703;28;20025;-75
2022/12/21 11:42:24;;;;;;;47.63;21.20;;;8.50;99.90;;;;;;5055990;28;20079;-74
2022/12/21 11:44:52;;;;;;;41.05;20.08;;;8.50;99.90;;;;;;5055417;28;20029;-76
2022/12/21 11:47:43;;;;;;;41.95;19.45;;;8.60;99.90;;;;;;5055121;28;20028;-75
2022/12/21 11:50:26;;;;;;;51.38;21.02;;;8.60;99.90;;;;;;5055336;28;20114;-74
2022/12/21 11:53:11;;;;;;;38.58;18.90;;;8.60;99.90;;;;;;5055057;28;20062;-76
2022/12/21 11:55:40;;;;;;;34.40;19.50;;;8.60;99.90;;;;;;5055255;28;20599;-74
2022/12/21 11:58:29;;;;;;;30.33;18.40;;;8.60;99.90;;;;;;5055376;28;20025;-75
2022/12/21 12:01:32;;;;;;;29.30;15.88;;;8.60;99.90;;;;;;5055004;28;20024;-75
2022/12/21 12:04:23;;;;;;;42.33;20.83;;;8.60;99.90;;;;;;5044081;28;20021;-75
2022/12/21 12:06:54;;;;;;;;;;;8.50;99.90;;;;;;5054526;28;20028;-75
2022/12/21 12:09:30;;;;;;;27.73;17.50;;;8.50;99.90;;;;;;5044051;28;19920;-76
2022/12/21 12:12:13;;;;;;;35.63;20.92;;;8.50;99.90;;;;;;5037394;28;20033;-75
2022/12/21 12:15:08;;;;;;;33.80;20.00;;;8.50;99.90;;;;;;5053046;28;20559;-75
2022/12/21 12:17:46;;;;;;;39.33;19.25;;;8.50;99.90;;;;;;5047877;28;20111;-74
2022/12/21 12:20:33;;;;;;;33.25;18.73;;;8.60;99.90;;;;;;5053267;28;20120;-76
2022/12/21 12:23:46;;;;;;;38.97;21.95;;;8.60;99.90;;;;;;5052792;28;20025;-75
2022/12/21 12:26:16;;;;;;;36.40;18.70;;;8.50;99.90;;;;;;5050585;28;20055;-75
2022/12/21 12:29:09;;;;;;;32.38;20.15;;;8.60;99.90;;;;;;5049225;28;20029;-75
2022/12/21 12:31:59;;;;;;;27.20;19.05;;;8.60;99.90;;;;;;5049328;28;20061;-75
2022/12/21 12:34:30;;;;;;;29.40;17.60;;;8.60;99.90;;;;;;5050334;28;20036;-76
2022/12/21 12:37:31;;;;;;;32.88;18.17;;;8.60;99.90;;;;;;5050034;28;20543;-75
2022/12/21 12:40:15;;;;;;;38.63;19.33;;;8.60;99.90;;;;;;5047776;28;20014;-75
2022/12/21 12:43:03;;;;;;;31.75;18.35;;;8.60;99.90;;;;;;5046614;28;20026;-75
2022/12/21 12:45:43;;;;;;;34.67;19.52;;;8.70;99.90;;;;;;5046587;28;20099;-74
2022/12/21 12:48:33;;;;;;;;;;;8.60;99.90;;;;;;5046453;28;20035;-74
2022/12/21 12:51:38;;;;;;;40.83;19.90;;;8.60;99.90;;;;;;5040193;28;19912;-75
2022/12/21 12:54:16;;;;;;;39.85;20.73;;;8.60;99.90;;;;;;5037386;28;20041;-75
2022/12/21 12:57:13;;;;;;;39.70;22.73;;;8.60;99.90;;;;;;5039080;28;20097;-76
2022/12/21 12:59:57;;;;;;;40.35;23.73;;;8.60;99.90;;;;;;5045110;28;20021;-75
2022/12/21 13:02:59;;;;;;;38.22;23.63;;;8.70;99.90;;;;;;5044901;28;20025;-75
2022/12/21 13:05:32;;;;;;;43.60;23.27;;;8.80;99.90;;;;;;5047145;28;20222;-76
2022/12/21 13:08:16;;;;;;;36.15;21.83;;;8.80;99.90;;;;;;5042053;28;20489;-75
2022/12/21 13:10:57;;;;;;;34.53;21.13;;;8.90;99.90;;;;;;5045014;28;20033;-74
2022/12/21 13:13:31;;;;;;;37.30;23.50;;;8.90;99.90;;;;;;5045383;28;20064;-75
2022/12/21 13:16:31;;;;;;;34.05;23.27;;;8.90;99.90;;;;;;5051120;28;20079;-75